Kansas City Johnson County Executive Airport

Current Flights

Departures
Number Departure To Airline
Arrivals
Number Arrival From Airline
 1I304 10:30  Indianapolis NetJets
Info
Name: Kansas City Johnson County Executive Airport
Identifier:  OJC/KOJC
Local Time:  19. May 10:17
City
Kansas City
  United States

Flights per Day
6 flights
Distance: 554km (344mi)
Punctuality
83% (1 flights per day delayed)
Delay Average: 46 minutes
Current Weather
 14 C (Humidity: 82%)
  10kt (18km/h / 11mph) from 300°
19 knots Gusts

  Broken clouds at 1,700 feet (518 meter)
  Overcast at 2,400 feet (731 meter)
  16km (10 mi.)
 METAR KOJC 191453Z 30010G19KT 10SM BKN017 OVC024 14/11 A2978 RMK AO2 SLP081 T01440111 53042 $

Current Delays

Departures
N/A
Arrivals
N/A

Destinations

Top Destinations
Airport Flights
per week
Seats
per week
  Kaiser/Lake Ozark (AIZ) <1 - 0 0
  Wichita (ICT) <1 - 0 0
  Springfield (SGF) <1 - 0 0
  Kansas City (MKC) <1 - 0 0
  Denver (APA) <1 - 0 0
  Olathe (JCI) <1 - 0 0
  Des Moines (DSM) <1 - 0 0

Airlines & Planes

Top Airlines
Airline Flights
per Day
Seats
per Day
  Nolinor Aviation 1 -
  National Airlines 1 -
  Novair 1 -
Nordwind Airlines 1 -
  Flybe Nordic <1 -
Jet Charter Inc ( Franklin Lakes Nj ) <1 -
Executive Flight Services <1 -
Jet Linx Aviation <1 -
Top Plane Types
Manufacturer Model Flights Seats
Pilatus PC-12 2.1/day - 0
Beech E90 King Air 0.5/day - 0
Cessna C172 0.4/day - 0
Cessna C25A 0.4/day - 0
Piper PA-46-350P Malibu Mirage 0.3/day - 0